sensor_id;sensor_type;location;lat;lon;timestamp;pressure;altitude;pressure_sealevel;temperature
6454;BMP180;3260;52.438;13.502;2022-08-05T04:00:28;100443.00;;;23.80
6454;BMP180;3260;52.438;13.502;2022-08-05T04:03:00;100442.00;;;23.80
6454;BMP180;3260;52.438;13.502;2022-08-05T04:05:32;100446.00;;;24.10
6454;BMP180;3260;52.438;13.502;2022-08-05T04:08:09;100450.00;;;23.90
6454;BMP180;3260;52.438;13.502;2022-08-05T04:10:59;100442.00;;;24.00
6454;BMP180;3260;52.438;13.502;2022-08-05T04:13:29;100445.00;;;24.30
6454;BMP180;3260;52.438;13.502;2022-08-05T04:16:18;100450.00;;;24.10
6454;BMP180;3260;52.438;13.502;2022-08-05T04:18:51;100458.00;;;24.00
6454;BMP180;3260;52.438;13.502;2022-08-05T04:21:24;100451.00;;;24.20
6454;BMP180;3260;52.438;13.502;2022-08-05T04:24:12;100435.00;;;23.90
6454;BMP180;3260;52.438;13.502;2022-08-05T04:26:48;100402.00;;;24.60
6454;BMP180;3260;52.438;13.502;2022-08-05T04:29:17;100433.00;;;24.70
6454;BMP180;3260;52.438;13.502;2022-08-05T04:31:47;100431.00;;;25.10
6454;BMP180;3260;52.438;13.502;2022-08-05T04:34:15;100429.00;;;25.30
6454;BMP180;3260;52.438;13.502;2022-08-05T04:37:01;100431.00;;;25.10
6454;BMP180;3260;52.438;13.502;2022-08-05T04:39:29;100428.00;;;25.10
6454;BMP180;3260;52.438;13.502;2022-08-05T04:42:01;100431.00;;;25.70
6454;BMP180;3260;52.438;13.502;2022-08-05T04:44:29;100434.00;;;25.50
6454;BMP180;3260;52.438;13.502;2022-08-05T04:46:59;100449.00;;;25.50
6454;BMP180;3260;52.438;13.502;2022-08-05T04:49:37;100449.00;;;25.40
6454;BMP180;3260;52.438;13.502;2022-08-05T04:52:25;100477.00;;;25.60
6454;BMP180;3260;52.438;13.502;2022-08-05T04:54:54;100483.00;;;25.90
6454;BMP180;3260;52.438;13.502;2022-08-05T04:57:23;100485.00;;;25.90
6454;BMP180;3260;52.438;13.502;2022-08-05T04:59:55;100481.00;;;26.40
6454;BMP180;3260;52.438;13.502;2022-08-05T05:02:26;100486.00;;;26.50
6454;BMP180;3260;52.438;13.502;2022-08-05T05:05:07;100470.00;;;26.50
6454;BMP180;3260;52.438;13.502;2022-08-05T05:07:59;100478.00;;;27.00
6454;BMP180;3260;52.438;13.502;2022-08-05T05:10:29;100475.00;;;27.10
6454;BMP180;3260;52.438;13.502;2022-08-05T05:12:59;100463.00;;;27.10
6454;BMP180;3260;52.438;13.502;2022-08-05T05:15:30;100471.00;;;27.40
6454;BMP180;3260;52.438;13.502;2022-08-05T05:18:21;100480.00;;;27.20
6454;BMP180;3260;52.438;13.502;2022-08-05T05:21:00;100474.00;;;27.40
6454;BMP180;3260;52.438;13.502;2022-08-05T05:23:29;100478.00;;;27.70
6454;BMP180;3260;52.438;13.502;2022-08-05T05:26:18;100477.00;;;27.70
6454;BMP180;3260;52.438;13.502;2022-08-05T05:28:59;100476.00;;;27.70
6454;BMP180;3260;52.438;13.502;2022-08-05T05:31:28;100476.00;;;28.20
6454;BMP180;3260;52.438;13.502;2022-08-05T05:33:58;100479.00;;;28.20
6454;BMP180;3260;52.438;13.502;2022-08-05T05:36:29;100488.00;;;28.20
6454;BMP180;3260;52.438;13.502;2022-08-05T05:38:57;100505.00;;;28.10
6454;BMP180;3260;52.438;13.502;2022-08-05T05:41:26;100513.00;;;28.00
6454;BMP180;3260;52.438;13.502;2022-08-05T05:44:08;100527.00;;;28.00
6454;BMP180;3260;52.438;13.502;2022-08-05T05:46:56;100537.00;;;27.30
6454;BMP180;3260;52.438;13.502;2022-08-05T05:49:32;100540.00;;;27.30
6454;BMP180;3260;52.438;13.502;2022-08-05T05:52:00;100541.00;;;27.20
6454;BMP180;3260;52.438;13.502;2022-08-05T05:54:33;100537.00;;;27.20
6454;BMP180;3260;52.438;13.502;2022-08-05T05:57:17;100525.00;;;27.60
6454;BMP180;3260;52.438;13.502;2022-08-05T05:59:46;100520.00;;;27.80
6454;BMP180;3260;52.438;13.502;2022-08-05T06:02:15;100532.00;;;27.90
6454;BMP180;3260;52.438;13.502;2022-08-05T06:05:07;100538.00;;;27.70
6454;BMP180;3260;52.438;13.502;2022-08-05T06:07:42;100556.00;;;27.40
6454;BMP180;3260;52.438;13.502;2022-08-05T06:10:28;100593.00;;;27.50
6454;BMP180;3260;52.438;13.502;2022-08-05T06:13:03;100602.00;;;27.50
6454;BMP180;3260;52.438;13.502;2022-08-05T06:15:32;100591.00;;;27.20
6454;BMP180;3260;52.438;13.502;2022-08-05T06:18:20;100575.00;;;27.60
6454;BMP180;3260;52.438;13.502;2022-08-05T06:20:58;100586.00;;;27.70
6454;BMP180;3260;52.438;13.502;2022-08-05T06:23:27;100605.00;;;27.80
6454;BMP180;3260;52.438;13.502;2022-08-05T06:26:10;100610.00;;;27.30
6454;BMP180;3260;52.438;13.502;2022-08-05T06:28:50;100616.00;;;27.10
6454;BMP180;3260;52.438;13.502;2022-08-05T06:31:19;100622.00;;;26.90
6454;BMP180;3260;52.438;13.502;2022-08-05T06:33:48;100639.00;;;26.60
6454;BMP180;3260;52.438;13.502;2022-08-05T06:36:35;100628.00;;;26.60
6454;BMP180;3260;52.438;13.502;2022-08-05T06:39:23;100626.00;;;26.70
6454;BMP180;3260;52.438;13.502;2022-08-05T06:41:55;100607.00;;;26.60
6454;BMP180;3260;52.438;13.502;2022-08-05T06:44:25;100618.00;;;27.20
6454;BMP180;3260;52.438;13.502;2022-08-05T06:46:53;100610.00;;;27.50
6454;BMP180;3260;52.438;13.502;2022-08-05T06:49:22;100603.00;;;27.50
6454;BMP180;3260;52.438;13.502;2022-08-05T06:52:12;100600.00;;;27.90
6454;BMP180;3260;52.438;13.502;2022-08-05T06:55:00;100602.00;;;28.20
6454;BMP180;3260;52.438;13.502;2022-08-05T06:57:28;100598.00;;;28.70
6454;BMP180;3260;52.438;13.502;2022-08-05T07:00:17;100599.00;;;29.10
6454;BMP180;3260;52.438;13.502;2022-08-05T07:02:50;100607.00;;;29.50
6454;BMP180;3260;52.438;13.502;2022-08-05T07:05:20;100612.00;;;29.50
6454;BMP180;3260;52.438;13.502;2022-08-05T07:08:05;100599.00;;;29.20
6454;BMP180;3260;52.438;13.502;2022-08-05T07:10:38;100603.00;;;28.90
6454;BMP180;3260;52.438;13.502;2022-08-05T07:13:20;100606.00;;;29.20
6454;BMP180;3260;52.438;13.502;2022-08-05T07:16:27;100612.00;;;29.30
6454;BMP180;3260;52.438;13.502;2022-08-05T07:19:33;100615.00;;;29.20
6454;BMP180;3260;52.438;13.502;2022-08-05T07:22:22;100626.00;;;29.60
6454;BMP180;3260;52.438;13.502;2022-08-05T07:24:59;100630.00;;;29.70
6454;BMP180;3260;52.438;13.502;2022-08-05T07:27:48;100642.00;;;29.60
6454;BMP180;3260;52.438;13.502;2022-08-05T07:30:29;100650.00;;;29.70
6454;BMP180;3260;52.438;13.502;2022-08-05T07:33:01;100661.00;;;29.50
6454;BMP180;3260;52.438;13.502;2022-08-05T07:35:36;100647.00;;;29.60
6454;BMP180;3260;52.438;13.502;2022-08-05T07:38:25;100645.00;;;29.50
6454;BMP180;3260;52.438;13.502;2022-08-05T07:41:03;100632.00;;;29.40
6454;BMP180;3260;52.438;13.502;2022-08-05T07:43:53;100646.00;;;29.20
6454;BMP180;3260;52.438;13.502;2022-08-05T07:46:23;100648.00;;;29.30
6454;BMP180;3260;52.438;13.502;2022-08-05T07:48:54;100653.00;;;29.40
6454;BMP180;3260;52.438;13.502;2022-08-05T07:51:33;100643.00;;;29.20
6454;BMP180;3260;52.438;13.502;2022-08-05T07:54:06;100641.00;;;29.00
6454;BMP180;3260;52.438;13.502;2022-08-05T07:56:37;100637.00;;;28.60
6454;BMP180;3260;52.438;13.502;2022-08-05T07:59:25;100646.00;;;29.00
6454;BMP180;3260;52.438;13.502;2022-08-05T08:02:06;100624.00;;;29.60
6454;BMP180;3260;52.438;13.502;2022-08-05T08:04:42;100620.00;;;29.40
6454;BMP180;3260;52.438;13.502;2022-08-05T08:07:14;100633.00;;;29.00
6454;BMP180;3260;52.438;13.502;2022-08-05T08:09:44;100646.00;;;29.00
6454;BMP180;3260;52.438;13.502;2022-08-05T08:12:15;100647.00;;;28.90
6454;BMP180;3260;52.438;13.502;2022-08-05T08:15:05;100623.00;;;28.80
6454;BMP180;3260;52.438;13.502;2022-08-05T08:17:40;100634.00;;;28.70
6454;BMP180;3260;52.438;13.502;2022-08-05T08:20:20;100629.00;;;28.60
6454;BMP180;3260;52.438;13.502;2022-08-05T08:23:09;100622.00;;;28.90
6454;BMP180;3260;52.438;13.502;2022-08-05T08:25:57;100620.00;;;29.50
6454;BMP180;3260;52.438;13.502;2022-08-05T08:28:32;100628.00;;;29.80
6454;BMP180;3260;52.438;13.502;2022-08-05T08:31:20;100614.00;;;29.70
6454;BMP180;3260;52.438;13.502;2022-08-05T08:33:48;100618.00;;;30.20
6454;BMP180;3260;52.438;13.502;2022-08-05T08:36:19;100633.00;;;30.40
6454;BMP180;3260;52.438;13.502;2022-08-05T08:39:07;100632.00;;;29.80
6454;BMP180;3260;52.438;13.502;2022-08-05T08:41:43;100649.00;;;29.40
6454;BMP180;3260;52.438;13.502;2022-08-05T08:44:29;100655.00;;;29.10
6454;BMP180;3260;52.438;13.502;2022-08-05T08:47:22;100660.00;;;29.00
6454;BMP180;3260;52.438;13.502;2022-08-05T08:50:11;100678.00;;;28.90
6454;BMP180;3260;52.438;13.502;2022-08-05T08:53:03;100675.00;;;29.00
6454;BMP180;3260;52.438;13.502;2022-08-05T08:55:39;100672.00;;;29.20
6454;BMP180;3260;52.438;13.502;2022-08-05T08:58:28;100676.00;;;28.90
6454;BMP180;3260;52.438;13.502;2022-08-05T09:01:12;100681.00;;;29.00
6454;BMP180;3260;52.438;13.502;2022-08-05T09:03:45;100677.00;;;29.10
6454;BMP180;3260;52.438;13.502;2022-08-05T09:06:14;100662.00;;;29.10
6454;BMP180;3260;52.438;13.502;2022-08-05T09:08:50;100653.00;;;28.90
6454;BMP180;3260;52.438;13.502;2022-08-05T09:11:18;100648.00;;;28.80
6454;BMP180;3260;52.438;13.502;2022-08-05T09:14:06;100653.00;;;28.80
6454;BMP180;3260;52.438;13.502;2022-08-05T09:16:56;100689.00;;;29.10
6454;BMP180;3260;52.438;13.502;2022-08-05T09:19:25;100707.00;;;29.30
6454;BMP180;3260;52.438;13.502;2022-08-05T09:22:13;100727.00;;;29.40
6454;BMP180;3260;52.438;13.502;2022-08-05T09:24:58;100708.00;;;29.10
6454;BMP180;3260;52.438;13.502;2022-08-05T09:27:32;100707.00;;;28.60
6454;BMP180;3260;52.438;13.502;2022-08-05T09:30:21;100709.00;;;28.90
6454;BMP180;3260;52.438;13.502;2022-08-05T09:32:51;100717.00;;;29.10
6454;BMP180;3260;52.438;13.502;2022-08-05T09:35:19;100720.00;;;29.10
6454;BMP180;3260;52.438;13.502;2022-08-05T09:37:55;100729.00;;;29.30
6454;BMP180;3260;52.438;13.502;2022-08-05T09:40:44;100737.00;;;29.10
6454;BMP180;3260;52.438;13.502;2022-08-05T09:43:30;100753.00;;;29.20
6454;BMP180;3260;52.438;13.502;2022-08-05T09:46:24;100746.00;;;28.60
6454;BMP180;3260;52.438;13.502;2022-08-05T09:48:56;100735.00;;;28.90
6454;BMP180;3260;52.438;13.502;2022-08-05T09:51:45;100733.00;;;28.30
6454;BMP180;3260;52.438;13.502;2022-08-05T09:54:16;100722.00;;;29.20
6454;BMP180;3260;52.438;13.502;2022-08-05T09:56:55;100717.00;;;28.60
6454;BMP180;3260;52.438;13.502;2022-08-05T09:59:28;100719.00;;;28.70
6454;BMP180;3260;52.438;13.502;2022-08-05T10:02:03;100709.00;;;28.90
6454;BMP180;3260;52.438;13.502;2022-08-05T10:04:36;100681.00;;;28.80
6454;BMP180;3260;52.438;13.502;2022-08-05T10:07:07;100685.00;;;28.70
6454;BMP180;3260;52.438;13.502;2022-08-05T10:09:53;100698.00;;;28.60
6454;BMP180;3260;52.438;13.502;2022-08-05T10:12:42;100678.00;;;28.90
6454;BMP180;3260;52.438;13.502;2022-08-05T10:15:50;100669.00;;;29.20
6454;BMP180;3260;52.438;13.502;2022-08-05T10:18:20;100662.00;;;29.20
6454;BMP180;3260;52.438;13.502;2022-08-05T10:20:54;100664.00;;;29.40
6454;BMP180;3260;52.438;13.502;2022-08-05T10:23:25;100653.00;;;29.70
6454;BMP180;3260;52.438;13.502;2022-08-05T10:26:13;100660.00;;;29.50
6454;BMP180;3260;52.438;13.502;2022-08-05T10:28:44;100678.00;;;29.90
6454;BMP180;3260;52.438;13.502;2022-08-05T10:31:15;100706.00;;;29.50
6454;BMP180;3260;52.438;13.502;2022-08-05T10:34:04;100688.00;;;30.40
6454;BMP180;3260;52.438;13.502;2022-08-05T10:36:38;100710.00;;;30.50
6454;BMP180;3260;52.438;13.502;2022-08-05T10:39:13;100742.00;;;29.60
6454;BMP180;3260;52.438;13.502;2022-08-05T10:42:11;100742.00;;;28.60
6454;BMP180;3260;52.438;13.502;2022-08-05T10:44:59;100714.00;;;29.40
6454;BMP180;3260;52.438;13.502;2022-08-05T10:47:32;100710.00;;;29.70
6454;BMP180;3260;52.438;13.502;2022-08-05T10:50:07;100708.00;;;29.60
6454;BMP180;3260;52.438;13.502;2022-08-05T10:53:00;100710.00;;;29.20
6454;BMP180;3260;52.438;13.502;2022-08-05T10:55:29;100713.00;;;28.80
6454;BMP180;3260;52.438;13.502;2022-08-05T10:58:18;100733.00;;;28.10
6454;BMP180;3260;52.438;13.502;2022-08-05T11:00:47;100726.00;;;28.60
6454;BMP180;3260;52.438;13.502;2022-08-05T11:03:28;100724.00;;;29.20
6454;BMP180;3260;52.438;13.502;2022-08-05T11:06:10;100717.00;;;29.50
6454;BMP180;3260;52.438;13.502;2022-08-05T11:09:18;100675.00;;;29.30
6454;BMP180;3260;52.438;13.502;2022-08-05T11:12:43;100679.00;;;29.30
6454;BMP180;3260;52.438;13.502;2022-08-05T11:15:23;100675.00;;;29.60
6454;BMP180;3260;52.438;13.502;2022-08-05T11:18:26;100669.00;;;30.70
6454;BMP180;3260;52.438;13.502;2022-08-05T11:20:58;100695.00;;;31.70
6454;BMP180;3260;52.438;13.502;2022-08-05T11:23:34;100703.00;;;32.20
6454;BMP180;3260;52.438;13.502;2022-08-05T11:26:24;100721.00;;;32.80
6454;BMP180;3260;52.438;13.502;2022-08-05T11:29:00;100715.00;;;32.70
6454;BMP180;3260;52.438;13.502;2022-08-05T11:31:41;100729.00;;;33.30
6454;BMP180;3260;52.438;13.502;2022-08-05T11:34:38;100744.00;;;34.20
6454;BMP180;3260;52.438;13.502;2022-08-05T11:38:05;100749.00;;;36.00
6454;BMP180;3260;52.438;13.502;2022-08-05T11:41:02;100739.00;;;36.90
6454;BMP180;3260;52.438;13.502;2022-08-05T11:43:57;100745.00;;;36.30
6454;BMP180;3260;52.438;13.502;2022-08-05T11:46:37;100745.00;;;34.00
6454;BMP180;3260;52.438;13.502;2022-08-05T11:49:26;100754.00;;;34.60
6454;BMP180;3260;52.438;13.502;2022-08-05T11:52:00;100757.00;;;35.50
6454;BMP180;3260;52.438;13.502;2022-08-05T11:54:38;100746.00;;;36.40
6454;BMP180;3260;52.438;13.502;2022-08-05T11:57:07;100744.00;;;36.40
6454;BMP180;3260;52.438;13.502;2022-08-05T11:59:54;100743.00;;;36.30
6454;BMP180;3260;52.438;13.502;2022-08-05T12:02:27;100746.00;;;36.10
6454;BMP180;3260;52.438;13.502;2022-08-05T12:05:01;100755.00;;;36.00
6454;BMP180;3260;52.438;13.502;2022-08-05T12:07:36;100753.00;;;37.20
6454;BMP180;3260;52.438;13.502;2022-08-05T12:10:26;100751.00;;;38.80
6454;BMP180;3260;52.438;13.502;2022-08-05T12:13:13;100754.00;;;40.70
6454;BMP180;3260;52.438;13.502;2022-08-05T12:15:56;100750.00;;;40.80
6454;BMP180;3260;52.438;13.502;2022-08-05T12:18:31;100755.00;;;39.20
6454;BMP180;3260;52.438;13.502;2022-08-05T12:21:14;100757.00;;;42.00
6454;BMP180;3260;52.438;13.502;2022-08-05T12:23:52;100770.00;;;42.20
6454;BMP180;3260;52.438;13.502;2022-08-05T12:26:21;100772.00;;;41.20
6454;BMP180;3260;52.438;13.502;2022-08-05T12:28:50;100777.00;;;41.90
6454;BMP180;3260;52.438;13.502;2022-08-05T12:31:19;100768.00;;;40.90
6454;BMP180;3260;52.438;13.502;2022-08-05T12:34:00;100769.00;;;41.90
6454;BMP180;3260;52.438;13.502;2022-08-05T12:36:29;100756.00;;;42.70
6454;BMP180;3260;52.438;13.502;2022-08-05T12:38:58;100755.00;;;44.40
6454;BMP180;3260;52.438;13.502;2022-08-05T12:41:31;100759.00;;;47.10
6454;BMP180;3260;52.438;13.502;2022-08-05T12:44:03;100762.00;;;48.90
6454;BMP180;3260;52.438;13.502;2022-08-05T12:46:40;100764.00;;;50.10
6454;BMP180;3260;52.438;13.502;2022-08-05T12:49:13;100766.00;;;50.20
6454;BMP180;3260;52.438;13.502;2022-08-05T12:51:47;100778.00;;;51.10
6454;BMP180;3260;52.438;13.502;2022-08-05T12:54:36;100771.00;;;53.20
6454;BMP180;3260;52.438;13.502;2022-08-05T12:57:06;100773.00;;;51.50
6454;BMP180;3260;52.438;13.502;2022-08-05T12:59:45;100781.00;;;50.00
6454;BMP180;3260;52.438;13.502;2022-08-05T13:02:35;100781.00;;;48.60
6454;BMP180;3260;52.438;13.502;2022-08-05T13:05:08;100782.00;;;48.00
6454;BMP180;3260;52.438;13.502;2022-08-05T13:07:42;100775.00;;;51.50
6454;BMP180;3260;52.438;13.502;2022-08-05T13:10:31;100775.00;;;50.70
6454;BMP180;3260;52.438;13.502;2022-08-05T13:13:00;100770.00;;;50.40
6454;BMP180;3260;52.438;13.502;2022-08-05T13:15:34;100763.00;;;50.80
6454;BMP180;3260;52.438;13.502;2022-08-05T13:18:18;100772.00;;;53.20
6454;BMP180;3260;52.438;13.502;2022-08-05T13:20:47;100772.00;;;53.20
6454;BMP180;3260;52.438;13.502;2022-08-05T13:23:16;100774.00;;;50.40
6454;BMP180;3260;52.438;13.502;2022-08-05T13:25:49;100773.00;;;50.00
6454;BMP180;3260;52.438;13.502;2022-08-05T13:28:25;100775.00;;;46.40
6454;BMP180;3260;52.438;13.502;2022-08-05T13:30:54;100772.00;;;42.40
6454;BMP180;3260;52.438;13.502;2022-08-05T13:33:24;100766.00;;;40.10
6454;BMP180;3260;52.438;13.502;2022-08-05T13:36:12;100763.00;;;40.20
6454;BMP180;3260;52.438;13.502;2022-08-05T13:38:40;100761.00;;;40.30
6454;BMP180;3260;52.438;13.502;2022-08-05T13:41:09;100746.00;;;39.40
6454;BMP180;3260;52.438;13.502;2022-08-05T13:47:44;100755.00;;;42.60
6454;BMP180;3260;52.438;13.502;2022-08-05T13:50:34;100763.00;;;40.70
6454;BMP180;3260;52.438;13.502;2022-08-05T13:53:02;100756.00;;;39.80
6454;BMP180;3260;52.438;13.502;2022-08-05T13:55:34;100753.00;;;37.20
6454;BMP180;3260;52.438;13.502;2022-08-05T13:58:08;100760.00;;;35.30
6454;BMP180;3260;52.438;13.502;2022-08-05T14:00:36;100755.00;;;34.40
6454;BMP180;3260;52.438;13.502;2022-08-05T14:03:07;100766.00;;;33.20
6454;BMP180;3260;52.438;13.502;2022-08-05T14:05:36;100756.00;;;33.40
6454;BMP180;3260;52.438;13.502;2022-08-05T14:08:24;100757.00;;;32.80
6454;BMP180;3260;52.438;13.502;2022-08-05T14:10:58;100745.00;;;32.80
6454;BMP180;3260;52.438;13.502;2022-08-05T14:13:45;100753.00;;;34.00
6454;BMP180;3260;52.438;13.502;2022-08-05T14:16:14;100754.00;;;33.30
6454;BMP180;3260;52.438;13.502;2022-08-05T14:18:45;100751.00;;;32.90
6454;BMP180;3260;52.438;13.502;2022-08-05T14:21:14;100762.00;;;32.70
6454;BMP180;3260;52.438;13.502;2022-08-05T14:24:04;100754.00;;;31.70
6454;BMP180;3260;52.438;13.502;2022-08-05T14:26:34;100753.00;;;33.10
6454;BMP180;3260;52.438;13.502;2022-08-05T14:29:23;100752.00;;;34.10
6454;BMP180;3260;52.438;13.502;2022-08-05T14:31:51;100755.00;;;33.10
6454;BMP180;3260;52.438;13.502;2022-08-05T14:34:39;100761.00;;;31.90
6454;BMP180;3260;52.438;13.502;2022-08-05T14:37:09;100754.00;;;31.70
6454;BMP180;3260;52.438;13.502;2022-08-05T14:39:39;100759.00;;;30.90
6454;BMP180;3260;52.438;13.502;2022-08-05T14:42:16;100765.00;;;30.80
6454;BMP180;3260;52.438;13.502;2022-08-05T14:44:48;100760.00;;;30.30
6454;BMP180;3260;52.438;13.502;2022-08-05T14:47:16;100766.00;;;29.90
6454;BMP180;3260;52.438;13.502;2022-08-05T14:50:05;100750.00;;;30.30
6454;BMP180;3260;52.438;13.502;2022-08-05T14:52:45;100764.00;;;30.50
6454;BMP180;3260;52.438;13.502;2022-08-05T14:55:25;100766.00;;;30.40
6454;BMP180;3260;52.438;13.502;2022-08-05T14:58:05;100763.00;;;30.80
6454;BMP180;3260;52.438;13.502;2022-08-05T15:00:40;100765.00;;;30.10
6454;BMP180;3260;52.438;13.502;2022-08-05T15:03:26;100773.00;;;28.90
6454;BMP180;3260;52.438;13.502;2022-08-05T15:06:00;100766.00;;;29.30
6454;BMP180;3260;52.438;13.502;2022-08-05T15:08:43;100752.00;;;29.40
6454;BMP180;3260;52.438;13.502;2022-08-05T15:11:31;100750.00;;;28.70
6454;BMP180;3260;52.438;13.502;2022-08-05T15:14:19;100747.00;;;29.00
6454;BMP180;3260;52.438;13.502;2022-08-05T15:17:07;100760.00;;;29.00
6454;BMP180;3260;52.438;13.502;2022-08-05T15:19:56;100763.00;;;29.00
6454;BMP180;3260;52.438;13.502;2022-08-05T15:22:24;100750.00;;;28.80
6454;BMP180;3260;52.438;13.502;2022-08-05T15:24:55;100761.00;;;29.30
6454;BMP180;3260;52.438;13.502;2022-08-05T15:27:25;100757.00;;;29.00
6454;BMP180;3260;52.438;13.502;2022-08-05T15:30:03;100751.00;;;28.70
6454;BMP180;3260;52.438;13.502;2022-08-05T15:32:32;100750.00;;;28.40
6454;BMP180;3260;52.438;13.502;2022-08-05T15:35:01;100758.00;;;28.40
6454;BMP180;3260;52.438;13.502;2022-08-05T15:37:38;100758.00;;;28.70
6454;BMP180;3260;52.438;13.502;2022-08-05T15:40:28;100770.00;;;28.70
6454;BMP180;3260;52.438;13.502;2022-08-05T15:43:16;100765.00;;;27.90
6454;BMP180;3260;52.438;13.502;2022-08-05T15:45:46;100776.00;;;27.80
6454;BMP180;3260;52.438;13.502;2022-08-05T15:48:27;100775.00;;;27.80
6454;BMP180;3260;52.438;13.502;2022-08-05T15:50:56;100782.00;;;27.30
6454;BMP180;3260;52.438;13.502;2022-08-05T15:53:31;100787.00;;;27.30
6454;BMP180;3260;52.438;13.502;2022-08-05T15:56:18;100794.00;;;27.70
6454;BMP180;3260;52.438;13.502;2022-08-05T15:58:47;100797.00;;;27.30
6454;BMP180;3260;52.438;13.502;2022-08-05T16:01:16;100802.00;;;27.50
6454;BMP180;3260;52.438;13.502;2022-08-05T16:03:46;100790.00;;;27.70
6454;BMP180;3260;52.438;13.502;2022-08-05T16:10:16;100789.00;;;27.60
6454;BMP180;3260;52.438;13.502;2022-08-05T16:12:52;100798.00;;;27.60
6454;BMP180;3260;52.438;13.502;2022-08-05T16:15:22;100809.00;;;27.60
6454;BMP180;3260;52.438;13.502;2022-08-05T16:17:58;100807.00;;;27.70
6454;BMP180;3260;52.438;13.502;2022-08-05T16:20:30;100805.00;;;27.20
6454;BMP180;3260;52.438;13.502;2022-08-05T16:22:58;100807.00;;;27.30
6454;BMP180;3260;52.438;13.502;2022-08-05T16:25:26;100799.00;;;27.80
6454;BMP180;3260;52.438;13.502;2022-08-05T16:28:02;100814.00;;;27.70
6454;BMP180;3260;52.438;13.502;2022-08-05T16:30:32;100822.00;;;27.70
6454;BMP180;3260;52.438;13.502;2022-08-05T16:33:02;100826.00;;;27.00
6454;BMP180;3260;52.438;13.502;2022-08-05T16:35:31;100844.00;;;26.80
6454;BMP180;3260;52.438;13.502;2022-08-05T16:38:08;100854.00;;;26.50
6454;BMP180;3260;52.438;13.502;2022-08-05T16:40:52;100851.00;;;26.30
6454;BMP180;3260;52.438;13.502;2022-08-05T16:43:30;100857.00;;;26.40
6454;BMP180;3260;52.438;13.502;2022-08-05T16:46:01;100876.00;;;26.20
6454;BMP180;3260;52.438;13.502;2022-08-05T16:48:49;100887.00;;;26.00
6454;BMP180;3260;52.438;13.502;2022-08-05T16:51:18;100881.00;;;25.90
6454;BMP180;3260;52.438;13.502;2022-08-05T16:53:47;100859.00;;;25.90
6454;BMP180;3260;52.438;13.502;2022-08-05T16:56:36;100856.00;;;26.00
6454;BMP180;3260;52.438;13.502;2022-08-05T16:59:09;100871.00;;;25.80
6454;BMP180;3260;52.438;13.502;2022-08-05T17:01:41;100869.00;;;25.80
6454;BMP180;3260;52.438;13.502;2022-08-05T17:04:23;100869.00;;;26.80
6454;BMP180;3260;52.438;13.502;2022-08-05T17:06:54;100877.00;;;27.80
6454;BMP180;3260;52.438;13.502;2022-08-05T17:09:27;100879.00;;;28.20
6454;BMP180;3260;52.438;13.502;2022-08-05T17:11:56;100887.00;;;28.50
6454;BMP180;3260;52.438;13.502;2022-08-05T17:14:28;100904.00;;;28.30
6454;BMP180;3260;52.438;13.502;2022-08-05T17:17:05;100912.00;;;27.50
6454;BMP180;3260;52.438;13.502;2022-08-05T17:19:41;100908.00;;;26.80
6454;BMP180;3260;52.438;13.502;2022-08-05T17:22:13;100922.00;;;26.10
6454;BMP180;3260;52.438;13.502;2022-08-05T17:24:51;100934.00;;;25.80
6454;BMP180;3260;52.438;13.502;2022-08-05T17:27:25;100939.00;;;25.10
6454;BMP180;3260;52.438;13.502;2022-08-05T17:30:04;100949.00;;;24.60
6454;BMP180;3260;52.438;13.502;2022-08-05T17:32:44;100954.00;;;25.00
6454;BMP180;3260;52.438;13.502;2022-08-05T17:35:14;100931.00;;;24.70
6454;BMP180;3260;52.438;13.502;2022-08-05T17:37:47;100956.00;;;24.20
6454;BMP180;3260;52.438;13.502;2022-08-05T17:40:17;100963.00;;;23.90
6454;BMP180;3260;52.438;13.502;2022-08-05T17:42:49;100966.00;;;23.70
6454;BMP180;3260;52.438;13.502;2022-08-05T17:45:21;100960.00;;;23.10
6454;BMP180;3260;52.438;13.502;2022-08-05T17:48:05;100966.00;;;23.20
6454;BMP180;3260;52.438;13.502;2022-08-05T17:50:34;100962.00;;;22.90
6454;BMP180;3260;52.438;13.502;2022-08-05T17:53:04;100988.00;;;22.90
6454;BMP180;3260;52.438;13.502;2022-08-05T17:55:34;100973.00;;;22.60
6454;BMP180;3260;52.438;13.502;2022-08-05T17:58:08;100992.00;;;22.20
6454;BMP180;3260;52.438;13.502;2022-08-05T18:00:43;100990.00;;;22.30
6454;BMP180;3260;52.438;13.502;2022-08-05T18:03:15;101001.00;;;21.90
6454;BMP180;3260;52.438;13.502;2022-08-05T18:06:05;101015.00;;;22.00
6454;BMP180;3260;52.438;13.502;2022-08-05T18:08:41;101031.00;;;22.50
6454;BMP180;3260;52.438;13.502;2022-08-05T18:11:13;101025.00;;;22.40
6454;BMP180;3260;52.438;13.502;2022-08-05T18:13:52;101030.00;;;22.60
6454;BMP180;3260;52.438;13.502;2022-08-05T18:16:22;101038.00;;;22.50
6454;BMP180;3260;52.438;13.502;2022-08-05T18:18:50;101022.00;;;22.30
6454;BMP180;3260;52.438;13.502;2022-08-05T18:21:18;101024.00;;;22.80
6454;BMP180;3260;52.438;13.502;2022-08-05T18:23:52;101037.00;;;22.70
6454;BMP180;3260;52.438;13.502;2022-08-05T18:26:21;101016.00;;;22.50
6454;BMP180;3260;52.438;13.502;2022-08-05T18:28:53;101044.00;;;22.50
6454;BMP180;3260;52.438;13.502;2022-08-05T18:31:24;101040.00;;;22.60
6454;BMP180;3260;52.438;13.502;2022-08-05T18:34:03;101055.00;;;22.50
6454;BMP180;3260;52.438;13.502;2022-08-05T18:36:32;101047.00;;;22.40
6454;BMP180;3260;52.438;13.502;2022-08-05T18:39:02;101059.00;;;22.60
6454;BMP180;3260;52.438;13.502;2022-08-05T18:41:48;101064.00;;;22.70
6454;BMP180;3260;52.438;13.502;2022-08-05T18:44:24;101067.00;;;22.50
6454;BMP180;3260;52.438;13.502;2022-08-05T18:47:14;101069.00;;;22.10
6454;BMP180;3260;52.438;13.502;2022-08-05T18:49:42;101073.00;;;22.20
6454;BMP180;3260;52.438;13.502;2022-08-05T18:52:28;101081.00;;;22.20
6454;BMP180;3260;52.438;13.502;2022-08-05T18:55:05;101081.00;;;22.40
6454;BMP180;3260;52.438;13.502;2022-08-05T18:57:38;101081.00;;;22.30
6454;BMP180;3260;52.438;13.502;2022-08-05T19:00:21;101091.00;;;22.00
6454;BMP180;3260;52.438;13.502;2022-08-05T19:02:56;101086.00;;;21.60
6454;BMP180;3260;52.438;13.502;2022-08-05T19:05:32;101086.00;;;22.10
6454;BMP180;3260;52.438;13.502;2022-08-05T19:08:21;101101.00;;;22.00
6454;BMP180;3260;52.438;13.502;2022-08-05T19:10:58;101101.00;;;21.50
6454;BMP180;3260;52.438;13.502;2022-08-05T19:13:34;101103.00;;;21.50
6454;BMP180;3260;52.438;13.502;2022-08-05T19:16:05;101086.00;;;21.60